Time;durP1;ratioP1;P1;durP2;ratioP2;P2;SDS_P1;SDS_P2;PMS_P1;PMS_P2;Temp;Humidity;BMP_temperature;BMP_pressure;BME280_temperature;BME280_humidity;BME280_pressure;Samples;Min_cycle;Max_cycle;Signal;HPM_P1;HPM_P2
2022/06/06 00:00:47;;;;;;;55.90;29.67;;;16.30;99.90;;;;;;5051817;28;20251;-62
2022/06/06 00:03:15;;;;;;;55.40;31.23;;;16.30;99.90;;;;;;5051549;28;20668;-62
2022/06/06 00:05:43;;;;;;;62.60;34.37;;;16.20;99.90;;;;;;5052147;28;20202;-62
2022/06/06 00:08:11;;;;;;;56.20;30.37;;;16.10;99.90;;;;;;5051178;28;20263;-62
2022/06/06 00:10:38;;;;;;;58.23;31.57;;;16.10;99.90;;;;;;5052055;28;20204;-62
2022/06/06 00:13:06;;;;;;;60.43;31.70;;;16.10;99.90;;;;;;5051865;28;20255;-62
2022/06/06 00:15:34;;;;;;;55.57;30.90;;;16.10;99.90;;;;;;5051382;28;20230;-62
2022/06/06 00:18:00;;;;;;;53.43;31.37;;;16.10;99.90;;;;;;5051365;28;20233;-62
2022/06/06 00:20:27;;;;;;;57.77;32.07;;;16.00;99.90;;;;;;5051707;28;20287;-62
2022/06/06 00:22:54;;;;;;;61.73;31.90;;;16.00;99.90;;;;;;5051780;28;20213;-62
2022/06/06 00:25:20;;;;;;;52.87;31.27;;;15.90;99.90;;;;;;5051514;28;20518;-62
2022/06/06 00:27:47;;;;;;;52.87;31.23;;;15.90;99.90;;;;;;5051278;28;20205;-62
2022/06/06 00:30:15;;;;;;;57.10;30.13;;;15.80;99.90;;;;;;5051485;28;20202;-62
2022/06/06 00:35:26;;;;;;;55.97;31.23;;;15.80;99.90;;;;;;5051386;28;20249;-62
2022/06/06 00:37:53;;;;;;;54.63;29.87;;;15.70;99.90;;;;;;5051193;28;20205;-62
2022/06/06 00:40:22;;;;;;;58.07;31.17;;;15.70;99.90;;;;;;5051694;28;20275;-62
2022/06/06 00:42:49;;;;;;;56.97;28.77;;;15.60;99.90;;;;;;5051246;28;20621;-62
2022/06/06 00:45:28;;;;;;;52.80;29.77;;;15.60;99.90;;;;;;5051400;28;20232;-62
2022/06/06 00:48:01;;;;;;;59.90;30.37;;;15.60;99.90;;;;;;5051092;28;20205;-62
2022/06/06 00:50:34;;;;;;;53.57;29.70;;;15.50;99.90;;;;;;5051479;28;20260;-62
2022/06/06 00:53:01;;;;;;;48.57;27.57;;;15.50;99.90;;;;;;5051203;28;20298;-62
2022/06/06 00:55:31;;;;;;;47.23;27.43;;;15.50;99.90;;;;;;5051113;28;20226;-62
2022/06/06 00:58:01;;;;;;;52.80;28.63;;;15.50;99.90;;;;;;5050714;28;20206;-62
2022/06/06 01:00:30;;;;;;;51.17;26.77;;;15.40;99.90;;;;;;5051027;28;20302;-62
2022/06/06 01:03:01;;;;;;;53.60;28.27;;;15.40;99.90;;;;;;5051419;28;20210;-62
2022/06/06 01:05:28;;;;;;;53.23;28.80;;;15.30;99.90;;;;;;5051163;28;20226;-62
2022/06/06 01:07:55;;;;;;;52.53;27.10;;;15.30;99.90;;;;;;5050837;28;20201;-56
2022/06/06 01:10:22;;;;;;;56.83;29.53;;;15.30;99.90;;;;;;5050874;28;20263;-61
2022/06/06 01:12:52;;;;;;;52.80;29.20;;;15.30;99.90;;;;;;5050831;28;20734;-56
2022/06/06 01:15:22;;;;;;;52.93;28.47;;;15.30;99.90;;;;;;5050938;28;20785;-59
2022/06/06 01:17:58;;;;;;;52.00;28.53;;;15.30;99.90;;;;;;5050781;28;20206;-61
2022/06/06 01:20:53;;;;;;;61.13;30.07;;;15.30;99.90;;;;;;5050907;28;20224;-62
2022/06/06 01:23:36;;;;;;;49.27;26.20;;;15.20;99.90;;;;;;5050808;28;20248;-62
2022/06/06 01:26:32;;;;;;;55.77;28.07;;;15.20;99.90;;;;;;5052626;28;20202;-62
2022/06/06 01:29:05;;;;;;;53.93;26.97;;;15.20;99.90;;;;;;5054399;28;20263;-62
2022/06/06 01:31:40;;;;;;;53.40;26.93;;;15.20;99.90;;;;;;5054591;28;20212;-62
2022/06/06 01:34:09;;;;;;;50.07;26.47;;;15.20;99.90;;;;;;5054637;28;20236;-61
2022/06/06 01:36:38;;;;;;;49.23;25.70;;;15.20;99.90;;;;;;5054178;28;20858;-62
2022/06/06 01:39:08;;;;;;;46.17;25.10;;;15.10;99.90;;;;;;5053983;28;20742;-61
2022/06/06 01:41:47;;;;;;;43.10;23.73;;;15.10;99.90;;;;;;5054515;28;20255;-60
2022/06/06 01:44:25;;;;;;;45.23;23.67;;;15.10;99.90;;;;;;5054057;28;20822;-62
2022/06/06 01:46:52;;;;;;;48.87;24.87;;;15.10;99.90;;;;;;5054151;28;20346;-61
2022/06/06 01:49:23;;;;;;;46.60;24.53;;;15.10;99.90;;;;;;5054355;28;20202;-62
2022/06/06 01:51:59;;;;;;;44.33;24.17;;;15.10;99.90;;;;;;5054044;28;20293;-62
2022/06/06 01:54:26;;;;;;;47.40;24.33;;;15.00;99.90;;;;;;5053876;28;20317;-62
2022/06/06 01:56:53;;;;;;;46.20;24.63;;;15.00;99.90;;;;;;5053660;28;20205;-62
2022/06/06 01:59:22;;;;;;;46.77;24.40;;;14.90;99.90;;;;;;5054352;28;20229;-62
2022/06/06 02:01:48;;;;;;;46.30;23.27;;;14.90;99.90;;;;;;5054249;28;20292;-61
2022/06/06 02:04:15;;;;;;;46.80;24.07;;;14.90;99.90;;;;;;5053850;28;20225;-62
2022/06/06 02:06:42;;;;;;;44.60;23.60;;;14.90;99.90;;;;;;5053498;28;20206;-62
2022/06/06 02:09:10;;;;;;;46.23;23.87;;;14.90;99.90;;;;;;5053785;28;20213;-62
2022/06/06 02:11:36;;;;;;;40.97;23.57;;;14.90;99.90;;;;;;5054026;28;20254;-60
2022/06/06 02:14:04;;;;;;;42.80;22.07;;;14.80;99.90;;;;;;5053562;28;20287;-62
2022/06/06 02:16:33;;;;;;;51.17;24.60;;;14.80;99.90;;;;;;5053343;28;20552;-62
2022/06/06 02:19:00;;;;;;;51.43;24.37;;;14.80;99.90;;;;;;5053613;28;20205;-61
2022/06/06 02:21:27;;;;;;;50.03;25.00;;;14.80;99.90;;;;;;5053435;28;20594;-61
2022/06/06 02:23:53;;;;;;;46.80;23.70;;;14.80;99.90;;;;;;5053696;28;20225;-61
2022/06/06 02:26:20;;;;;;;44.10;23.13;;;14.70;99.90;;;;;;5053302;28;20209;-61
2022/06/06 02:28:47;;;;;;;44.07;23.30;;;14.70;99.90;;;;;;5053693;28;20280;-60
2022/06/06 02:31:13;;;;;;;49.40;24.33;;;14.70;99.90;;;;;;5053398;28;20724;-62
2022/06/06 02:33:41;;;;;;;46.70;23.90;;;14.70;99.90;;;;;;5053487;28;20283;-61
2022/06/06 02:36:08;;;;;;;46.50;23.63;;;14.70;99.90;;;;;;5052651;28;20738;-62
2022/06/06 02:38:35;;;;;;;45.60;23.37;;;14.70;99.90;;;;;;5053512;28;20263;-61
2022/06/06 02:41:08;;;;;;;47.17;24.67;;;14.70;99.90;;;;;;5053163;28;20333;-59
2022/06/06 02:43:36;;;;;;;48.20;23.20;;;14.70;99.90;;;;;;5053239;28;20225;-60
2022/06/06 02:46:03;;;;;;;47.80;23.20;;;14.60;99.90;;;;;;5052671;28;20290;-61
2022/06/06 02:48:31;;;;;;;48.70;22.83;;;14.60;99.90;;;;;;5052877;28;20231;-61
2022/06/06 02:50:59;;;;;;;51.17;23.17;;;14.60;99.90;;;;;;5053186;28;20210;-61
2022/06/06 02:53:26;;;;;;;47.13;23.70;;;14.60;99.90;;;;;;5052902;28;20812;-61
2022/06/06 02:55:53;;;;;;;49.33;23.00;;;14.70;99.90;;;;;;5052717;28;20262;-62
2022/06/06 02:58:21;;;;;;;50.67;22.80;;;14.70;99.90;;;;;;5052877;28;20209;-61
2022/06/06 03:00:49;;;;;;;47.90;22.33;;;14.70;99.90;;;;;;5052774;28;20725;-61
2022/06/06 03:03:16;;;;;;;48.53;23.10;;;14.70;99.90;;;;;;5052681;28;20206;-60
2022/06/06 03:05:53;;;;;;;50.17;24.07;;;14.60;99.90;;;;;;5052663;28;20212;-61
2022/06/06 03:08:31;;;;;;;51.87;23.00;;;14.70;99.90;;;;;;5052926;28;20288;-62
2022/06/06 03:11:15;;;;;;;49.03;23.07;;;14.70;99.90;;;;;;5052526;28;20232;-61
2022/06/06 03:14:03;;;;;;;51.53;23.63;;;14.70;99.90;;;;;;5052400;28;20263;-61
2022/06/06 03:22:30;;;;;;;49.60;21.67;;;14.70;99.90;;;;;;5052361;28;20220;-62
2022/06/06 03:25:03;;;;;;;50.33;22.67;;;14.70;99.90;;;;;;5052446;28;20640;-62
2022/06/06 03:27:44;;;;;;;49.50;22.03;;;14.60;99.90;;;;;;5051983;28;20206;-62
2022/06/06 03:30:19;;;;;;;42.50;19.40;;;14.60;99.90;;;;;;5052234;28;20210;-62
2022/06/06 03:32:55;;;;;;;41.53;19.50;;;14.70;99.90;;;;;;5052119;28;20671;-62
2022/06/06 03:35:34;;;;;;;44.10;21.10;;;14.70;99.90;;;;;;5052022;28;20232;-62
2022/06/06 03:38:06;;;;;;;51.20;22.60;;;14.60;99.90;;;;;;5051446;28;20563;-62
2022/06/06 03:40:42;;;;;;;51.57;22.60;;;14.60;99.90;;;;;;5051969;28;20221;-60
2022/06/06 03:43:21;;;;;;;47.90;22.07;;;14.70;99.90;;;;;;5052231;28;20283;-62
2022/06/06 03:45:54;;;;;;;55.23;21.53;;;14.60;99.90;;;;;;5052062;28;20213;-59
2022/06/06 03:48:30;;;;;;;45.30;20.93;;;14.60;99.90;;;;;;5051642;28;20691;-62
2022/06/06 03:51:03;;;;;;;47.10;21.40;;;14.60;99.90;;;;;;5051917;28;20788;-61
2022/06/06 03:53:38;;;;;;;47.87;21.20;;;14.60;99.90;;;;;;5052058;28;20233;-62
2022/06/06 03:56:16;;;;;;;49.23;22.37;;;14.70;99.90;;;;;;5051474;28;20350;-60
2022/06/06 03:58:44;;;;;;;47.47;20.27;;;14.70;99.90;;;;;;5051951;28;20205;-62
2022/06/06 04:01:14;;;;;;;49.50;21.90;;;14.70;99.90;;;;;;5051645;28;20233;-62
2022/06/06 04:03:43;;;;;;;45.83;20.97;;;14.70;99.90;;;;;;5051696;28;20233;-62
2022/06/06 04:06:10;;;;;;;39.27;19.33;;;14.70;99.90;;;;;;5051636;28;20205;-62
2022/06/06 04:08:37;;;;;;;46.13;19.60;;;14.70;99.90;;;;;;5051823;28;20331;-61
2022/06/06 04:11:17;;;;;;;42.33;18.70;;;14.70;99.90;;;;;;5051632;28;20259;-62
2022/06/06 04:13:51;;;;;;;36.97;18.50;;;14.70;99.90;;;;;;5051373;28;20225;-60
2022/06/06 04:16:26;;;;;;;35.97;16.87;;;14.60;99.90;;;;;;5051233;28;20239;-62
2022/06/06 04:19:01;;;;;;;36.03;16.00;;;14.50;99.90;;;;;;5051733;28;20216;-62
2022/06/06 04:21:39;;;;;;;31.27;16.47;;;14.50;99.90;;;;;;5051632;28;20644;-62
2022/06/06 04:24:22;;;;;;;31.03;14.90;;;14.60;99.90;;;;;;5051464;28;20225;-62
2022/06/06 04:26:58;;;;;;;29.57;14.70;;;14.50;99.90;;;;;;5051489;28;20254;-62
2022/06/06 04:29:38;;;;;;;26.30;13.37;;;14.60;99.90;;;;;;5051670;28;20605;-62
2022/06/06 04:32:12;;;;;;;23.47;12.80;;;14.60;99.90;;;;;;5051711;28;20201;-62
2022/06/06 04:34:45;;;;;;;23.50;12.27;;;14.50;99.90;;;;;;5051462;28;20229;-62
2022/06/06 04:37:20;;;;;;;22.20;11.97;;;14.60;99.90;;;;;;5051349;28;20205;-62
2022/06/06 04:39:52;;;;;;;23.77;12.53;;;14.60;99.90;;;;;;5051376;28;20259;-62
2022/06/06 04:42:25;;;;;;;21.53;10.93;;;14.60;99.90;;;;;;5051382;28;20206;-62
2022/06/06 04:45:02;;;;;;;18.37;10.60;;;14.60;99.90;;;;;;5051488;28;20233;-62
2022/06/06 04:47:35;;;;;;;18.57;10.93;;;14.60;99.90;;;;;;5050961;28;20637;-62
2022/06/06 04:50:04;;;;;;;18.27;10.70;;;14.60;99.90;;;;;;5051119;28;20217;-62
2022/06/06 04:52:33;;;;;;;19.93;10.83;;;14.60;99.90;;;;;;5051168;28;20210;-62
2022/06/06 04:55:02;;;;;;;19.83;11.03;;;14.60;99.90;;;;;;5051334;28;20225;-62
2022/06/06 04:57:31;;;;;;;15.33;9.87;;;14.70;99.90;;;;;;5050871;28;20263;-62
2022/06/06 05:00:00;;;;;;;17.37;10.20;;;14.80;99.90;;;;;;5051161;28;20205;-62
2022/06/06 05:02:27;;;;;;;17.23;9.87;;;14.80;99.90;;;;;;5055354;28;20213;-62
2022/06/06 05:04:54;;;;;;;14.63;9.10;;;14.90;99.90;;;;;;5054953;28;20226;-62
2022/06/06 05:07:38;;;;;;;16.53;8.70;;;14.90;99.90;;;;;;5054693;28;20260;-62
2022/06/06 05:10:33;;;;;;;16.20;9.70;;;14.90;99.90;;;;;;5054829;28;20244;-62
2022/06/06 05:13:23;;;;;;;14.73;8.67;;;14.90;99.90;;;;;;5039527;28;20288;-62
2022/06/06 05:16:02;;;;;;;13.67;8.60;;;14.80;99.90;;;;;;5054499;28;20215;-62
2022/06/06 05:18:42;;;;;;;13.90;9.10;;;14.80;99.90;;;;;;5054827;28;20229;-62
2022/06/06 05:21:21;;;;;;;14.77;8.67;;;14.80;99.90;;;;;;5054753;28;20233;-62
2022/06/06 05:24:14;;;;;;;15.40;9.10;;;14.90;99.90;;;;;;5054842;28;20225;-62
2022/06/06 05:27:08;;;;;;;17.13;8.80;;;14.90;99.90;;;;;;5048865;28;20967;-62
2022/06/06 05:30:00;;;;;;;12.33;7.37;;;14.90;99.90;;;;;;5054893;28;20272;-62
2022/06/06 05:32:50;;;;;;;11.57;7.90;;;15.00;99.90;;;;;;5054570;28;20209;-62
2022/06/06 05:35:24;;;;;;;12.30;7.47;;;14.90;99.90;;;;;;5054339;28;20230;-62
2022/06/06 05:38:05;;;;;;;16.43;7.40;;;14.90;99.90;;;;;;5054160;28;20247;-62
2022/06/06 05:40:37;;;;;;;13.00;7.67;;;14.90;99.90;;;;;;5054541;28;20252;-62
2022/06/06 05:43:22;;;;;;;14.73;8.10;;;14.90;99.90;;;;;;5054299;28;20206;-63
2022/06/06 05:46:03;;;;;;;12.37;7.80;;;14.80;99.90;;;;;;5058380;28;20251;-62
2022/06/06 05:48:42;;;;;;;12.00;7.07;;;14.80;99.90;;;;;;5074194;28;20263;-66
2022/06/06 05:51:22;;;;;;;14.03;7.93;;;14.80;99.90;;;;;;5074314;28;20737;-65
2022/06/06 05:54:08;;;;;;;13.97;7.80;;;14.90;99.90;;;;;;5074058;28;20225;-66
2022/06/06 05:57:02;;;;;;;13.93;8.00;;;15.00;99.90;;;;;;5074064;28;20200;-65
2022/06/06 05:59:51;;;;;;;13.33;7.10;;;15.10;99.90;;;;;;5074088;28;20209;-68
2022/06/06 06:02:39;;;;;;;15.00;8.00;;;15.20;99.90;;;;;;5073416;28;20271;-63
2022/06/06 06:05:15;;;;;;;12.47;7.80;;;15.30;99.90;;;;;;5073648;28;20347;-62
2022/06/06 06:07:53;;;;;;;9.50;5.67;;;15.40;99.90;;;;;;5072576;28;20706;-61
2022/06/06 06:10:27;;;;;;;8.23;5.73;;;15.50;99.90;;;;;;5073697;28;20197;-62
2022/06/06 06:13:21;;;;;;;11.33;6.67;;;15.60;99.90;;;;;;5072483;28;20204;-62
2022/06/06 06:15:52;;;;;;;9.07;5.90;;;15.60;99.90;;;;;;5073323;28;20345;-63
2022/06/06 06:18:25;;;;;;;8.67;5.77;;;15.80;99.90;;;;;;5073177;28;20201;-63
2022/06/06 06:20:58;;;;;;;9.60;5.70;;;15.80;99.90;;;;;;5073096;28;20312;-63
2022/06/06 06:23:29;;;;;;;10.10;5.73;;;15.70;99.90;;;;;;5073320;28;20189;-64
2022/06/06 06:25:56;;;;;;;11.23;6.10;;;15.70;99.90;;;;;;5072827;28;20289;-62
2022/06/06 06:28:24;;;;;;;8.57;5.50;;;15.70;99.90;;;;;;5073275;28;20602;-65
2022/06/06 06:31:05;;;;;;;8.67;5.97;;;15.60;99.90;;;;;;5073613;28;20197;-66
2022/06/06 06:33:48;;;;;;;7.87;5.30;;;15.70;99.90;;;;;;5073328;28;20729;-64
2022/06/06 06:36:29;;;;;;;8.80;5.43;;;15.80;99.90;;;;;;5073028;28;20201;-65
2022/06/06 06:39:13;;;;;;;7.33;4.53;;;15.90;99.90;;;;;;5072775;28;20201;-63
2022/06/06 06:41:49;;;;;;;8.57;4.73;;;16.00;99.90;;;;;;5072903;28;20247;-63
2022/06/06 06:44:23;;;;;;;8.53;5.60;;;16.00;99.90;;;;;;5073084;28;20236;-64
2022/06/06 06:46:56;;;;;;;7.60;5.37;;;16.00;99.90;;;;;;5072748;28;20258;-64
2022/06/06 06:49:35;;;;;;;9.53;5.07;;;16.10;99.90;;;;;;5072590;28;20640;-64
2022/06/06 06:52:12;;;;;;;6.73;4.73;;;16.20;99.90;;;;;;5072762;28;20665;-66
2022/06/06 06:55:03;;;;;;;6.10;4.57;;;16.40;99.90;;;;;;5072822;28;20286;-64
2022/06/06 06:57:47;;;;;;;9.00;4.93;;;16.50;99.90;;;;;;5072201;28;20213;-65
2022/06/06 07:00:18;;;;;;;7.17;4.90;;;16.60;99.90;;;;;;5072406;28;20204;-62
2022/06/06 07:08:55;;;;;;;7.47;4.90;;;16.80;89.70;;;;;;5071708;28;20422;-61
2022/06/06 07:11:45;;;;;;;7.57;4.80;;;17.10;99.90;;;;;;5072156;28;20258;-61
2022/06/06 07:14:25;;;;;;;5.57;3.80;;;17.20;99.50;;;;;;5072202;28;20315;-62
2022/06/06 07:16:56;;;;;;;13.50;4.27;;;17.10;56.20;;;;;;5071685;28;20220;-62
2022/06/06 07:19:30;;;;;;;5.73;3.90;;;17.00;41.80;;;;;;5071782;28;20281;-63
2022/06/06 07:22:01;;;;;;;4.77;3.87;;;17.00;35.30;;;;;;5072191;28;20224;-63
2022/06/06 07:24:29;;;;;;;5.07;3.30;;;17.10;70.60;;;;;;5071322;28;20643;-64
2022/06/06 07:26:58;;;;;;;4.50;3.07;;;17.30;63.40;;;;;;5069636;28;20216;-62
2022/06/06 07:29:25;;;;;;;5.50;3.27;;;17.30;24.00;;;;;;5071296;28;20213;-63
2022/06/06 07:32:17;;;;;;;3.60;2.90;;;17.30;42.20;;;;;;5071771;28;20253;-64
2022/06/06 07:34:59;;;;;;;5.40;3.03;;;17.20;1.00;;;;;;5071393;28;20232;-64
2022/06/06 07:37:50;;;;;;;7.17;3.43;;;17.40;1.00;;;;;;5070375;28;20583;-64
2022/06/06 07:40:29;;;;;;;4.87;3.47;;;17.60;1.00;;;;;;5071531;28;20346;-64
2022/06/06 07:43:13;;;;;;;4.23;3.13;;;17.50;1.00;;;;;;5071229;28;20259;-64
2022/06/06 07:45:44;;;;;;;4.37;2.90;;;17.30;1.00;;;;;;5071925;28;20216;-64
2022/06/06 07:48:32;;;;;;;3.57;2.77;;;17.30;99.90;;;;;;5071196;28;20216;-65
2022/06/06 07:51:07;;;;;;;5.50;2.80;;;17.50;99.90;;;;;;5072002;28;20270;-64
2022/06/06 07:53:45;;;;;;;5.70;2.90;;;17.60;99.90;;;;;;5071341;28;20274;-63
2022/06/06 07:56:19;;;;;;;4.30;2.87;;;17.50;1.00;;;;;;5070269;28;20234;-63
2022/06/06 07:58:56;;;;;;;5.20;2.63;;;17.60;1.00;;;;;;5070443;28;20213;-64
2022/06/06 08:01:31;;;;;;;5.47;2.60;;;17.80;99.90;;;;;;5071766;28;20275;-63
2022/06/06 08:04:09;;;;;;;5.07;2.60;;;17.90;1.00;;;;;;5071304;28;20606;-63
2022/06/06 08:06:40;;;;;;;4.50;2.13;;;18.00;1.00;;;;;;5071359;28;20556;-63
2022/06/06 08:09:25;;;;;;;3.37;2.47;;;17.60;99.90;;;;;;5071011;28;20201;-63
2022/06/06 08:12:11;;;;;;;7.33;2.23;;;17.80;99.90;;;;;;5071696;28;20204;-63
2022/06/06 08:14:54;;;;;;;4.87;2.97;;;18.10;99.90;;;;;;5071672;28;20228;-64
2022/06/06 08:17:27;;;;;;;4.13;1.80;;;18.30;1.00;;;;;;5070561;28;20756;-62
2022/06/06 08:20:06;;;;;;;4.17;2.30;;;18.30;99.90;;;;;;5071386;28;20204;-63
2022/06/06 08:22:34;;;;;;;5.97;1.90;;;18.30;99.90;;;;;;5071342;28;20231;-62
2022/06/06 08:25:07;;;;;;;6.07;2.27;;;18.30;99.90;;;;;;5071292;28;20236;-64
2022/06/06 08:27:34;;;;;;;1.90;1.37;;;18.40;1.00;;;;;;5070943;28;20621;-63
2022/06/06 08:30:01;;;;;;;4.27;2.00;;;18.40;99.90;;;;;;5070372;28;20209;-63
2022/06/06 08:32:29;;;;;;;2.63;1.67;;;18.50;1.00;;;;;;5071043;28;20747;-63
2022/06/06 08:34:56;;;;;;;3.20;2.00;;;18.60;1.00;;;;;;5073038;28;20224;-63
2022/06/06 08:37:47;;;;;;;4.07;1.57;;;18.60;99.90;;;;;;5074962;28;20258;-62
2022/06/06 08:40:43;;;;;;;4.63;1.70;;;18.80;1.00;;;;;;5074951;28;20695;-64
2022/06/06 08:43:19;;;;;;;3.07;1.70;;;18.90;99.90;;;;;;5066543;28;20240;-63
2022/06/06 08:45:52;;;;;;;3.53;1.40;;;19.30;99.90;;;;;;5075018;28;20738;-64
2022/06/06 08:48:41;;;;;;;2.07;1.57;;;19.30;99.90;;;;;;5075192;28;20220;-64
2022/06/06 08:51:24;;;;;;;2.63;1.43;;;19.30;21.10;;;;;;5074821;28;20715;-63
2022/06/06 08:54:11;;;;;;;5.03;1.80;;;19.10;1.00;;;;;;5075151;28;20255;-64
2022/06/06 08:56:46;;;;;;;2.57;1.20;;;19.00;1.00;;;;;;5074665;28;20211;-63
2022/06/06 08:59:39;;;;;;;2.53;1.30;;;18.90;1.00;;;;;;5074565;28;20216;-64
2022/06/06 09:02:37;;;;;;;1.53;0.90;;;18.90;1.00;;;;;;5066652;28;20708;-65
2022/06/06 09:05:32;;;;;;;1.57;0.90;;;19.20;1.00;;;;;;5074694;28;20232;-62
2022/06/06 09:08:33;;;;;;;1.20;0.90;;;19.40;1.00;;;;;;5040631;28;20208;-63
2022/06/06 09:11:47;;;;;;;1.07;0.83;;;19.60;1.00;;;;;;5074862;28;20258;-62
2022/06/06 09:15:01;;;;;;;2.63;1.00;;;19.50;1.00;;;;;;5074459;28;20225;-62
2022/06/06 09:18:21;;;;;;;1.43;0.80;;;19.30;1.00;;;;;;5046138;28;20204;-62
2022/06/06 09:21:08;;;;;;;2.27;1.07;;;19.10;1.00;;;;;;5074717;28;20213;-63
2022/06/06 09:23:56;;;;;;;1.07;0.83;;;19.10;1.00;;;;;;5074273;28;20699;-61
2022/06/06 09:26:29;;;;;;;3.33;0.90;;;19.10;1.00;;;;;;5073916;28;20201;-60
2022/06/06 09:29:48;;;;;;;1.93;0.80;;;19.10;1.00;;;;;;5074343;28;20262;-62
2022/06/06 09:32:56;;;;;;;1.43;0.80;;;18.90;99.90;;;;;;5074059;28;20212;-64
2022/06/06 09:35:38;;;;;;;2.77;0.90;;;18.90;1.00;;;;;;5074550;28;20593;-62
2022/06/06 09:38:20;;;;;;;0.87;0.60;;;18.80;1.00;;;;;;5073601;28;20633;-61
2022/06/06 09:40:58;;;;;;;2.57;0.90;;;18.90;1.00;;;;;;5074258;28;20208;-61
2022/06/06 09:43:34;;;;;;;0.90;0.73;;;19.00;1.00;;;;;;5073807;28;21025;-62
2022/06/06 09:46:26;;;;;;;1.33;0.93;;;19.20;1.00;;;;;;5073071;28;20679;-61
2022/06/06 09:49:48;;;;;;;1.70;0.70;;;19.20;1.00;;;;;;5073882;28;20290;-63
2022/06/06 09:52:58;;;;;;;3.80;0.93;;;18.50;99.90;;;;;;5074114;28;20202;-63
2022/06/06 09:59:29;;;;;;;1.17;0.70;;;18.30;1.00;;;;;;5074584;28;20682;-64
2022/06/06 10:02:22;;;;;;;0.90;0.80;;;18.10;99.90;;;;;;5074038;28;20283;-66
2022/06/06 10:05:22;;;;;;;2.67;0.87;;;18.00;99.90;;;;;;5074160;28;20229;-63
2022/06/06 10:08:34;;;;;;;1.93;0.77;;;17.80;1.00;;;;;;5072807;28;20216;-62
2022/06/06 10:11:36;;;;;;;1.47;0.87;;;17.60;1.00;;;;;;5074049;28;20262;-62
2022/06/06 10:14:27;;;;;;;1.20;0.70;;;17.70;1.00;;;;;;5073695;28;20231;-61
2022/06/06 10:17:22;;;;;;;0.90;0.70;;;17.80;1.00;;;;;;5072933;28;20303;-62
2022/06/06 10:20:09;;;;;;;0.87;0.60;;;18.30;1.00;;;;;;5075004;28;20250;-64
2022/06/06 10:22:54;;;;;;;1.20;0.60;;;18.60;1.00;;;;;;5075103;28;20225;-65
2022/06/06 10:25:34;;;;;;;0.80;0.67;;;18.80;1.00;;;;;;5075122;28;20221;-64
2022/06/06 10:28:18;;;;;;;2.13;0.93;;;18.80;1.00;;;;;;5073551;28;20208;-66
2022/06/06 10:30:58;;;;;;;3.50;0.87;;;19.10;1.00;;;;;;5074344;28;20212;-65
2022/06/06 10:33:44;;;;;;;0.73;0.60;;;19.30;99.90;;;;;;5075443;28;20220;-64
2022/06/06 10:36:25;;;;;;;1.07;0.67;;;19.40;1.00;;;;;;5074369;28;20251;-65
2022/06/06 10:39:16;;;;;;;2.20;0.93;;;19.40;1.00;;;;;;5072876;28;20204;-62
2022/06/06 10:42:01;;;;;;;5.03;1.27;;;19.40;99.90;;;;;;5070307;28;20255;-62
2022/06/06 10:44:57;;;;;;;1.30;0.90;;;19.50;99.90;;;;;;5072442;28;20225;-62
2022/06/06 10:47:38;;;;;;;1.57;0.90;;;19.70;99.90;;;;;;5061796;28;20561;-62
2022/06/06 10:50:12;;;;;;;2.50;0.73;;;20.00;1.00;;;;;;5073058;28;20205;-62
2022/06/06 10:53:06;;;;;;;0.97;0.60;;;20.20;99.90;;;;;;5073615;28;20255;-64
2022/06/06 10:56:18;;;;;;;2.53;0.80;;;20.10;99.90;;;;;;5072496;28;20228;-65
2022/06/06 10:59:19;;;;;;;5.43;0.70;;;20.00;99.90;;;;;;5006627;28;20211;-66
2022/06/06 11:02:26;;;;;;;1.10;0.60;;;19.80;99.90;;;;;;5071929;28;20266;-62
2022/06/06 11:05:35;;;;;;;1.20;0.80;;;19.40;99.90;;;;;;5072950;28;20318;-62
2022/06/06 11:08:31;;;;;;;2.23;0.80;;;19.50;99.90;;;;;;5071289;28;20196;-63
2022/06/06 11:11:39;;;;;;;3.33;0.70;;;20.00;1.00;;;;;;5072247;28;20201;-62
2022/06/06 11:14:13;;;;;;;0.83;0.70;;;20.10;99.90;;;;;;5046334;28;20232;-62
2022/06/06 11:17:24;;;;;;;1.00;0.60;;;20.10;99.90;;;;;;5071830;28;20217;-61
2022/06/06 11:20:17;;;;;;;1.10;0.70;;;20.20;99.90;;;;;;5072424;28;20689;-61
2022/06/06 11:22:46;;;;;;;0.87;0.77;;;20.20;99.90;;;;;;5072383;28;20963;-64
2022/06/06 11:25:15;;;;;;;1.10;0.70;;;20.00;99.90;;;;;;5071591;28;20765;-62
2022/06/06 11:28:22;;;;;;;2.80;0.90;;;19.80;99.90;;;;;;5071127;28;20209;-63
2022/06/06 11:31:04;;;;;;;2.50;0.80;;;19.80;99.90;;;;;;5066405;28;20247;-63
2022/06/06 11:34:03;;;;;;;3.67;1.00;;;19.60;99.90;;;;;;5071586;28;20565;-61
2022/06/06 11:36:55;;;;;;;1.00;0.63;;;19.70;99.90;;;;;;5071796;28;20235;-64
2022/06/06 11:40:08;;;;;;;2.80;0.70;;;19.90;99.90;;;;;;5069761;28;20274;-63
2022/06/06 11:42:58;;;;;;;3.30;0.67;;;20.00;99.90;;;;;;5071877;28;20225;-63
2022/06/06 11:45:56;;;;;;;4.53;0.70;;;19.80;99.90;;;;;;5071649;28;20232;-66
2022/06/06 11:48:46;;;;;;;3.03;0.70;;;19.00;99.90;;;;;;5062404;28;20721;-65
2022/06/06 11:51:42;;;;;;;5.47;0.87;;;17.80;99.90;;;;;;5072175;28;20205;-67
2022/06/06 11:54:43;;;;;;;1.90;0.60;;;17.90;99.90;;;;;;5071144;28;20220;-67
2022/06/06 11:57:51;;;;;;;0.67;0.50;;;18.00;99.90;;;;;;5071045;28;20209;-63
2022/06/06 12:00:23;;;;;;;1.70;0.60;;;18.30;99.90;;;;;;5071563;28;20204;-62
2022/06/06 12:03:22;;;;;;;0.90;0.40;;;18.70;99.90;;;;;;5071324;28;20225;-62
2022/06/06 12:06:32;;;;;;;0.40;0.40;;;19.00;99.90;;;;;;5071782;28;20262;-65
2022/06/06 12:09:07;;;;;;;1.70;0.67;;;19.10;99.90;;;;;;5063343;28;20732;-65
2022/06/06 12:12:18;;;;;;;1.53;0.90;;;19.00;99.90;;;;;;5071414;28;20208;-64
2022/06/06 12:15:31;;;;;;;6.43;1.13;;;18.60;1.00;;;;;;5071482;28;20237;-65
2022/06/06 12:18:28;;;;;;;1.93;0.90;;;18.10;1.00;;;;;;5071351;28;20263;-63
2022/06/06 12:21:24;;;;;;;1.87;0.87;;;17.40;1.00;;;;;;5067755;28;20239;-63
2022/06/06 12:24:08;;;;;;;4.73;0.90;;;17.00;99.90;;;;;;5071282;28;20719;-62
2022/06/06 12:26:55;;;;;;;1.27;0.90;;;17.00;99.90;;;;;;5070649;28;20295;-61
2022/06/06 12:30:00;;;;;;;1.17;0.80;;;17.40;99.90;;;;;;5071289;28;20204;-61
2022/06/06 12:32:51;;;;;;;1.53;0.70;;;17.80;99.90;;;;;;5050052;28;20205;-61
2022/06/06 12:35:22;;;;;;;2.50;0.77;;;18.10;1.00;;;;;;5065766;28;20312;-61
2022/06/06 12:38:00;;;;;;;0.63;0.60;;;18.30;99.90;;;;;;5070489;28;20315;-61
2022/06/06 12:40:36;;;;;;;0.97;0.60;;;18.60;38.70;;;;;;5071134;28;20209;-61
2022/06/06 12:43:11;;;;;;;0.70;0.70;;;18.80;98.00;;;;;;5071264;28;20779;-62
2022/06/06 12:46:05;;;;;;;1.00;0.70;;;18.80;1.00;;;;;;5071222;28;20208;-61
2022/06/06 12:48:50;;;;;;;1.63;0.67;;;19.00;1.00;;;;;;5066241;28;20200;-62
2022/06/06 12:51:23;;;;;;;2.60;0.83;;;19.10;1.00;;;;;;5071220;28;20255;-63
2022/06/06 12:54:22;;;;;;;1.87;0.80;;;19.20;1.00;;;;;;5070835;28;20243;-64
2022/06/06 12:56:57;;;;;;;1.00;0.83;;;19.40;1.00;;;;;;5070285;28;20733;-62
2022/06/06 12:59:46;;;;;;;1.23;0.80;;;19.60;1.00;;;;;;5070879;28;20623;-63
2022/06/06 13:02:29;;;;;;;2.40;0.90;;;19.70;1.00;;;;;;5071419;28;20209;-64
2022/06/06 13:05:14;;;;;;;1.93;1.10;;;19.70;99.90;;;;;;5070944;28;20225;-64
2022/06/06 13:08:03;;;;;;;1.27;1.07;;;19.80;99.90;;;;;;5070768;28;20201;-64
2022/06/06 13:10:39;;;;;;;1.10;0.80;;;20.00;99.90;;;;;;5071036;28;20213;-60
2022/06/06 13:13:48;;;;;;;1.30;0.93;;;20.00;99.90;;;;;;5070642;28;20671;-60
2022/06/06 13:16:27;;;;;;;1.73;0.90;;;20.20;99.90;;;;;;5027913;28;20270;-62
2022/06/06 13:19:13;;;;;;;1.47;1.00;;;20.50;99.90;;;;;;5067830;28;20213;-62
2022/06/06 13:21:51;;;;;;;1.13;0.80;;;20.40;99.90;;;;;;5072009;28;20675;-63
2022/06/06 13:24:53;;;;;;;1.73;0.87;;;20.40;99.90;;;;;;5074649;28;20229;-63
2022/06/06 13:27:29;;;;;;;4.23;1.33;;;20.50;99.90;;;;;;5069000;28;20881;-63
2022/06/06 13:29:56;;;;;;;1.27;1.00;;;20.60;99.90;;;;;;5074664;28;20269;-64
2022/06/06 13:32:42;;;;;;;1.17;0.80;;;20.70;99.90;;;;;;5074274;28;20274;-65
2022/06/06 13:35:20;;;;;;;1.57;0.90;;;20.50;99.90;;;;;;5074265;28;20233;-64
2022/06/06 13:38:13;;;;;;;1.17;0.80;;;20.30;99.90;;;;;;5073599;28;20602;-66
2022/06/06 13:40:42;;;;;;;2.73;0.90;;;20.10;99.90;;;;;;5074070;28;20204;-64
2022/06/06 13:43:34;;;;;;;2.43;1.00;;;20.10;99.90;;;;;;5073819;28;20224;-63
2022/06/06 13:46:16;;;;;;;1.90;0.83;;;20.40;99.90;;;;;;5073427;28;20258;-63
2022/06/06 13:48:59;;;;;;;1.03;0.93;;;20.80;99.90;;;;;;5073700;28;20208;-63
2022/06/06 13:51:42;;;;;;;1.30;0.80;;;20.90;99.90;;;;;;5073926;28;20288;-63
2022/06/06 13:54:10;;;;;;;3.47;0.70;;;20.70;99.90;;;;;;5073819;28;20259;-62
2022/06/06 13:56:53;;;;;;;1.07;0.80;;;20.80;99.90;;;;;;5073194;28;20205;-62
2022/06/06 13:59:37;;;;;;;2.53;0.70;;;20.90;99.90;;;;;;5073560;28;20287;-62
2022/06/06 14:02:19;;;;;;;1.30;0.73;;;21.20;99.90;;;;;;5073762;28;20254;-63
2022/06/06 14:05:02;;;;;;;2.80;1.00;;;21.20;99.90;;;;;;5073582;28;20748;-62